General Aviation, Military Aircraft, Classic Cars, Aerobatics, Emergency Vehicles, Airplane rides ($35)

Free Admission!!
Sky Divers
Aerobatic acts
Over 60 local sponsors
Free bounce house for kids
Free pedal planes for kids
Wild Rice Pancake Breakfast served by the Ag Club of Burnett County

  • Adults – $7.00
  • Kids 5-12 – $4.00
  • Under 5 – Free

Howard Aircraft on display

Airport identifier - KRZN

Aviation Weather For Siren - KRZN
SIREN, WI
Metar
KRZN 200515Z AUTO 00000KT 10SM CLR 16/16 A3005 RMK AO2 T01630155

05:15 UTC

Wind: 0° 0kt

Visibility: 10 SM

Sky:

Temp: 16 deg C / 60.8 deg F

Dewpoint: 16 deg C / 60.8 deg F

Pressure: 30.05 inHg